sensor_id;sensor_type;location;lat;lon;timestamp;P1;durP1;ratioP1;P2;durP2;ratioP2
12088;SDS011;6107;49.078;8.578;2023-08-20T00:00:09;15.40;;;7.07;;
12088;SDS011;6107;49.078;8.578;2023-08-20T00:02:36;14.13;;;7.22;;
12088;SDS011;6107;49.078;8.578;2023-08-20T00:05:03;15.88;;;8.23;;
12088;SDS011;6107;49.078;8.578;2023-08-20T00:07:29;11.45;;;7.00;;
12088;SDS011;6107;49.078;8.578;2023-08-20T00:09:56;18.92;;;7.72;;
12088;SDS011;6107;49.078;8.578;2023-08-20T00:12:21;14.45;;;7.80;;
12088;SDS011;6107;49.078;8.578;2023-08-20T00:14:54;13.27;;;6.82;;
12088;SDS011;6107;49.078;8.578;2023-08-20T00:17:30;14.68;;;7.47;;
12088;SDS011;6107;49.078;8.578;2023-08-20T00:19:56;11.77;;;7.85;;
12088;SDS011;6107;49.078;8.578;2023-08-20T00:22:23;13.32;;;8.07;;
12088;SDS011;6107;49.078;8.578;2023-08-20T00:24:50;17.98;;;8.35;;
12088;SDS011;6107;49.078;8.578;2023-08-20T00:27:16;13.88;;;7.30;;
12088;SDS011;6107;49.078;8.578;2023-08-20T00:29:42;11.65;;;7.53;;
12088;SDS011;6107;49.078;8.578;2023-08-20T00:32:08;15.48;;;7.40;;
12088;SDS011;6107;49.078;8.578;2023-08-20T00:34:34;13.23;;;7.75;;
12088;SDS011;6107;49.078;8.578;2023-08-20T00:37:00;13.93;;;7.57;;
12088;SDS011;6107;49.078;8.578;2023-08-20T00:39:26;14.93;;;8.02;;
12088;SDS011;6107;49.078;8.578;2023-08-20T00:41:52;11.15;;;6.80;;
12088;SDS011;6107;49.078;8.578;2023-08-20T00:44:18;12.13;;;7.53;;
12088;SDS011;6107;49.078;8.578;2023-08-20T00:46:43;12.80;;;8.20;;
12088;SDS011;6107;49.078;8.578;2023-08-20T00:49:09;13.63;;;8.20;;
12088;SDS011;6107;49.078;8.578;2023-08-20T00:51:35;12.50;;;7.88;;
12088;SDS011;6107;49.078;8.578;2023-08-20T00:54:01;13.82;;;7.43;;
12088;SDS011;6107;49.078;8.578;2023-08-20T00:56:28;12.63;;;7.10;;
12088;SDS011;6107;49.078;8.578;2023-08-20T00:58:54;11.00;;;6.95;;
12088;SDS011;6107;49.078;8.578;2023-08-20T01:01:21;11.32;;;7.00;;
12088;SDS011;6107;49.078;8.578;2023-08-20T01:03:47;9.85;;;6.63;;
12088;SDS011;6107;49.078;8.578;2023-08-20T01:08:53;13.55;;;6.68;;
12088;SDS011;6107;49.078;8.578;2023-08-20T01:11:36;13.43;;;7.00;;
12088;SDS011;6107;49.078;8.578;2023-08-20T01:14:14;14.80;;;7.15;;
12088;SDS011;6107;49.078;8.578;2023-08-20T01:16:41;12.13;;;6.78;;
12088;SDS011;6107;49.078;8.578;2023-08-20T01:19:07;11.00;;;6.82;;
12088;SDS011;6107;49.078;8.578;2023-08-20T01:21:37;12.35;;;7.25;;
12088;SDS011;6107;49.078;8.578;2023-08-20T01:24:21;14.57;;;7.25;;
12088;SDS011;6107;49.078;8.578;2023-08-20T01:29:43;10.45;;;7.18;;
12088;SDS011;6107;49.078;8.578;2023-08-20T01:32:09;15.73;;;7.53;;
12088;SDS011;6107;49.078;8.578;2023-08-20T01:34:36;13.13;;;7.03;;
12088;SDS011;6107;49.078;8.578;2023-08-20T01:37:03;14.18;;;8.07;;
12088;SDS011;6107;49.078;8.578;2023-08-20T01:39:28;11.95;;;7.47;;
12088;SDS011;6107;49.078;8.578;2023-08-20T01:41:54;14.15;;;8.02;;
12088;SDS011;6107;49.078;8.578;2023-08-20T01:44:19;15.05;;;7.13;;
12088;SDS011;6107;49.078;8.578;2023-08-20T01:46:45;16.13;;;8.30;;
12088;SDS011;6107;49.078;8.578;2023-08-20T01:49:10;17.05;;;8.23;;
12088;SDS011;6107;49.078;8.578;2023-08-20T01:51:36;13.38;;;8.40;;
12088;SDS011;6107;49.078;8.578;2023-08-20T01:54:01;11.82;;;6.75;;
12088;SDS011;6107;49.078;8.578;2023-08-20T01:56:27;14.75;;;7.32;;
12088;SDS011;6107;49.078;8.578;2023-08-20T01:58:53;17.15;;;6.78;;
12088;SDS011;6107;49.078;8.578;2023-08-20T02:01:18;11.52;;;7.45;;
12088;SDS011;6107;49.078;8.578;2023-08-20T02:03:44;12.60;;;7.55;;
12088;SDS011;6107;49.078;8.578;2023-08-20T02:06:09;9.98;;;6.72;;
12088;SDS011;6107;49.078;8.578;2023-08-20T02:08:35;14.93;;;7.93;;
12088;SDS011;6107;49.078;8.578;2023-08-20T02:11:01;11.10;;;6.75;;
12088;SDS011;6107;49.078;8.578;2023-08-20T02:13:28;16.10;;;7.15;;
12088;SDS011;6107;49.078;8.578;2023-08-20T02:15:57;9.85;;;6.78;;
12088;SDS011;6107;49.078;8.578;2023-08-20T02:18:27;10.70;;;6.33;;
12088;SDS011;6107;49.078;8.578;2023-08-20T02:20:53;14.23;;;6.60;;
12088;SDS011;6107;49.078;8.578;2023-08-20T02:23:18;11.38;;;6.95;;
12088;SDS011;6107;49.078;8.578;2023-08-20T02:25:44;11.82;;;6.22;;
12088;SDS011;6107;49.078;8.578;2023-08-20T02:28:09;10.32;;;6.85;;
12088;SDS011;6107;49.078;8.578;2023-08-20T02:30:45;9.68;;;6.30;;
12088;SDS011;6107;49.078;8.578;2023-08-20T02:33:11;9.63;;;6.20;;
12088;SDS011;6107;49.078;8.578;2023-08-20T02:35:37;8.73;;;5.78;;
12088;SDS011;6107;49.078;8.578;2023-08-20T02:38:06;12.38;;;6.47;;
12088;SDS011;6107;49.078;8.578;2023-08-20T02:40:32;10.45;;;6.45;;
12088;SDS011;6107;49.078;8.578;2023-08-20T02:42:57;11.15;;;5.93;;
12088;SDS011;6107;49.078;8.578;2023-08-20T02:45:23;11.88;;;5.47;;
12088;SDS011;6107;49.078;8.578;2023-08-20T02:47:49;11.95;;;6.80;;
12088;SDS011;6107;49.078;8.578;2023-08-20T02:50:14;9.65;;;6.70;;
12088;SDS011;6107;49.078;8.578;2023-08-20T02:52:41;18.63;;;7.20;;
12088;SDS011;6107;49.078;8.578;2023-08-20T02:55:07;11.75;;;7.25;;
12088;SDS011;6107;49.078;8.578;2023-08-20T02:57:33;11.23;;;6.25;;
12088;SDS011;6107;49.078;8.578;2023-08-20T02:59:59;13.63;;;6.63;;
12088;SDS011;6107;49.078;8.578;2023-08-20T03:02:24;12.45;;;7.13;;
12088;SDS011;6107;49.078;8.578;2023-08-20T03:04:50;12.35;;;6.53;;
12088;SDS011;6107;49.078;8.578;2023-08-20T03:07:15;10.05;;;6.40;;
12088;SDS011;6107;49.078;8.578;2023-08-20T03:09:41;11.65;;;6.78;;
12088;SDS011;6107;49.078;8.578;2023-08-20T03:12:06;10.77;;;6.50;;
12088;SDS011;6107;49.078;8.578;2023-08-20T03:14:32;14.73;;;6.65;;
12088;SDS011;6107;49.078;8.578;2023-08-20T03:16:58;12.30;;;6.85;;
12088;SDS011;6107;49.078;8.578;2023-08-20T03:19:23;11.80;;;6.28;;
12088;SDS011;6107;49.078;8.578;2023-08-20T03:21:49;11.13;;;6.63;;
12088;SDS011;6107;49.078;8.578;2023-08-20T03:24:14;15.32;;;7.00;;
12088;SDS011;6107;49.078;8.578;2023-08-20T03:26:40;10.15;;;6.53;;
12088;SDS011;6107;49.078;8.578;2023-08-20T03:29:05;10.05;;;6.15;;
12088;SDS011;6107;49.078;8.578;2023-08-20T03:31:31;12.77;;;5.95;;
12088;SDS011;6107;49.078;8.578;2023-08-20T03:33:56;13.13;;;6.18;;
12088;SDS011;6107;49.078;8.578;2023-08-20T03:36:22;16.42;;;6.70;;
12088;SDS011;6107;49.078;8.578;2023-08-20T03:38:47;13.95;;;6.20;;
12088;SDS011;6107;49.078;8.578;2023-08-20T03:41:13;12.07;;;5.78;;
12088;SDS011;6107;49.078;8.578;2023-08-20T03:43:39;10.93;;;5.78;;
12088;SDS011;6107;49.078;8.578;2023-08-20T03:46:04;17.27;;;6.15;;
12088;SDS011;6107;49.078;8.578;2023-08-20T03:48:30;13.43;;;6.50;;
12088;SDS011;6107;49.078;8.578;2023-08-20T03:50:56;10.95;;;5.72;;
12088;SDS011;6107;49.078;8.578;2023-08-20T03:53:21;15.65;;;6.65;;
12088;SDS011;6107;49.078;8.578;2023-08-20T03:55:47;9.60;;;5.53;;
12088;SDS011;6107;49.078;8.578;2023-08-20T03:58:13;9.75;;;5.45;;
12088;SDS011;6107;49.078;8.578;2023-08-20T04:00:39;9.95;;;5.78;;
12088;SDS011;6107;49.078;8.578;2023-08-20T04:03:04;10.38;;;5.65;;
12088;SDS011;6107;49.078;8.578;2023-08-20T04:05:35;10.32;;;5.13;;
12088;SDS011;6107;49.078;8.578;2023-08-20T04:08:01;14.88;;;5.70;;
12088;SDS011;6107;49.078;8.578;2023-08-20T04:10:27;10.25;;;5.32;;
12088;SDS011;6107;49.078;8.578;2023-08-20T04:12:52;10.45;;;5.28;;
12088;SDS011;6107;49.078;8.578;2023-08-20T04:15:18;10.05;;;6.15;;
12088;SDS011;6107;49.078;8.578;2023-08-20T04:17:43;12.75;;;6.60;;
12088;SDS011;6107;49.078;8.578;2023-08-20T04:20:09;13.25;;;5.65;;
12088;SDS011;6107;49.078;8.578;2023-08-20T04:22:35;9.70;;;6.32;;
12088;SDS011;6107;49.078;8.578;2023-08-20T04:25:02;12.73;;;6.25;;
12088;SDS011;6107;49.078;8.578;2023-08-20T04:27:27;11.15;;;5.40;;
12088;SDS011;6107;49.078;8.578;2023-08-20T04:29:53;15.80;;;6.40;;
12088;SDS011;6107;49.078;8.578;2023-08-20T04:32:18;15.52;;;5.97;;
12088;SDS011;6107;49.078;8.578;2023-08-20T04:34:44;10.70;;;6.47;;
12088;SDS011;6107;49.078;8.578;2023-08-20T04:37:11;10.90;;;6.20;;
12088;SDS011;6107;49.078;8.578;2023-08-20T04:39:37;12.40;;;7.03;;
12088;SDS011;6107;49.078;8.578;2023-08-20T04:42:03;11.75;;;6.15;;
12088;SDS011;6107;49.078;8.578;2023-08-20T04:44:28;8.63;;;5.50;;
12088;SDS011;6107;49.078;8.578;2023-08-20T04:46:54;13.73;;;6.28;;
12088;SDS011;6107;49.078;8.578;2023-08-20T04:49:19;22.75;;;7.25;;
12088;SDS011;6107;49.078;8.578;2023-08-20T04:51:45;10.23;;;6.55;;
12088;SDS011;6107;49.078;8.578;2023-08-20T04:54:10;9.38;;;6.43;;
12088;SDS011;6107;49.078;8.578;2023-08-20T04:56:36;10.43;;;6.72;;
12088;SDS011;6107;49.078;8.578;2023-08-20T04:59:01;9.95;;;6.53;;
12088;SDS011;6107;49.078;8.578;2023-08-20T05:01:27;11.43;;;6.45;;
12088;SDS011;6107;49.078;8.578;2023-08-20T05:03:52;10.25;;;6.88;;
12088;SDS011;6107;49.078;8.578;2023-08-20T05:06:18;9.95;;;6.95;;
12088;SDS011;6107;49.078;8.578;2023-08-20T05:08:43;14.07;;;7.47;;
12088;SDS011;6107;49.078;8.578;2023-08-20T05:11:09;12.73;;;7.38;;
12088;SDS011;6107;49.078;8.578;2023-08-20T05:13:34;13.15;;;6.53;;
12088;SDS011;6107;49.078;8.578;2023-08-20T05:16:00;12.93;;;7.88;;
12088;SDS011;6107;49.078;8.578;2023-08-20T05:18:25;11.90;;;6.97;;
12088;SDS011;6107;49.078;8.578;2023-08-20T05:20:52;14.25;;;7.45;;
12088;SDS011;6107;49.078;8.578;2023-08-20T05:23:17;16.92;;;7.63;;
12088;SDS011;6107;49.078;8.578;2023-08-20T05:25:42;12.95;;;7.00;;
12088;SDS011;6107;49.078;8.578;2023-08-20T05:28:08;13.27;;;7.53;;
12088;SDS011;6107;49.078;8.578;2023-08-20T05:30:34;11.07;;;7.20;;
12088;SDS011;6107;49.078;8.578;2023-08-20T05:32:59;12.70;;;7.20;;
12088;SDS011;6107;49.078;8.578;2023-08-20T05:35:25;13.30;;;7.63;;
12088;SDS011;6107;49.078;8.578;2023-08-20T05:37:50;13.48;;;7.07;;
12088;SDS011;6107;49.078;8.578;2023-08-20T05:40:16;12.95;;;7.72;;
12088;SDS011;6107;49.078;8.578;2023-08-20T05:42:41;11.40;;;6.85;;
12088;SDS011;6107;49.078;8.578;2023-08-20T05:45:07;13.57;;;7.35;;
12088;SDS011;6107;49.078;8.578;2023-08-20T05:47:33;14.85;;;7.30;;
12088;SDS011;6107;49.078;8.578;2023-08-20T05:49:58;13.88;;;7.60;;
12088;SDS011;6107;49.078;8.578;2023-08-20T05:52:24;16.08;;;7.55;;
12088;SDS011;6107;49.078;8.578;2023-08-20T05:54:49;12.20;;;6.65;;
12088;SDS011;6107;49.078;8.578;2023-08-20T05:57:15;15.75;;;8.20;;
12088;SDS011;6107;49.078;8.578;2023-08-20T05:59:40;17.08;;;7.07;;
12088;SDS011;6107;49.078;8.578;2023-08-20T06:02:06;12.70;;;7.22;;
12088;SDS011;6107;49.078;8.578;2023-08-20T06:04:31;11.40;;;6.45;;
12088;SDS011;6107;49.078;8.578;2023-08-20T06:06:57;14.23;;;7.65;;
12088;SDS011;6107;49.078;8.578;2023-08-20T06:09:23;15.55;;;8.18;;
12088;SDS011;6107;49.078;8.578;2023-08-20T06:11:49;16.42;;;7.90;;
12088;SDS011;6107;49.078;8.578;2023-08-20T06:14:14;14.35;;;7.45;;
12088;SDS011;6107;49.078;8.578;2023-08-20T06:16:40;10.23;;;6.75;;
12088;SDS011;6107;49.078;8.578;2023-08-20T06:19:05;11.07;;;6.55;;
12088;SDS011;6107;49.078;8.578;2023-08-20T06:21:31;15.90;;;7.93;;
12088;SDS011;6107;49.078;8.578;2023-08-20T06:23:56;10.13;;;6.45;;
12088;SDS011;6107;49.078;8.578;2023-08-20T06:26:22;13.38;;;7.57;;
12088;SDS011;6107;49.078;8.578;2023-08-20T06:28:47;12.25;;;6.38;;
12088;SDS011;6107;49.078;8.578;2023-08-20T06:31:13;13.15;;;6.80;;
12088;SDS011;6107;49.078;8.578;2023-08-20T06:33:38;12.50;;;6.85;;
12088;SDS011;6107;49.078;8.578;2023-08-20T06:36:04;11.25;;;7.03;;
12088;SDS011;6107;49.078;8.578;2023-08-20T06:38:29;14.50;;;6.43;;
12088;SDS011;6107;49.078;8.578;2023-08-20T06:40:55;11.95;;;6.18;;
12088;SDS011;6107;49.078;8.578;2023-08-20T06:43:21;11.68;;;6.13;;
12088;SDS011;6107;49.078;8.578;2023-08-20T06:45:46;14.63;;;6.45;;
12088;SDS011;6107;49.078;8.578;2023-08-20T06:48:12;19.80;;;7.20;;
12088;SDS011;6107;49.078;8.578;2023-08-20T06:50:37;10.93;;;6.22;;
12088;SDS011;6107;49.078;8.578;2023-08-20T06:53:03;11.18;;;6.82;;
12088;SDS011;6107;49.078;8.578;2023-08-20T06:55:30;13.15;;;6.45;;
12088;SDS011;6107;49.078;8.578;2023-08-20T06:57:55;13.07;;;6.78;;
12088;SDS011;6107;49.078;8.578;2023-08-20T07:00:21;13.98;;;6.55;;
12088;SDS011;6107;49.078;8.578;2023-08-20T07:02:46;17.33;;;6.68;;
12088;SDS011;6107;49.078;8.578;2023-08-20T07:05:12;14.25;;;6.82;;
12088;SDS011;6107;49.078;8.578;2023-08-20T07:07:39;14.55;;;7.47;;
12088;SDS011;6107;49.078;8.578;2023-08-20T07:10:05;16.67;;;6.15;;
12088;SDS011;6107;49.078;8.578;2023-08-20T07:12:31;11.70;;;6.30;;
12088;SDS011;6107;49.078;8.578;2023-08-20T07:14:56;14.90;;;6.93;;
12088;SDS011;6107;49.078;8.578;2023-08-20T07:17:22;10.27;;;6.30;;
12088;SDS011;6107;49.078;8.578;2023-08-20T07:19:47;14.38;;;6.82;;
12088;SDS011;6107;49.078;8.578;2023-08-20T07:22:13;13.75;;;7.38;;
12088;SDS011;6107;49.078;8.578;2023-08-20T07:24:38;13.68;;;6.68;;
12088;SDS011;6107;49.078;8.578;2023-08-20T07:27:04;12.32;;;6.60;;
12088;SDS011;6107;49.078;8.578;2023-08-20T07:29:35;11.63;;;6.15;;
12088;SDS011;6107;49.078;8.578;2023-08-20T07:32:01;18.08;;;6.82;;
12088;SDS011;6107;49.078;8.578;2023-08-20T07:34:28;15.15;;;7.45;;
12088;SDS011;6107;49.078;8.578;2023-08-20T07:36:54;12.98;;;6.63;;
12088;SDS011;6107;49.078;8.578;2023-08-20T07:39:20;14.15;;;6.40;;
12088;SDS011;6107;49.078;8.578;2023-08-20T07:41:45;11.52;;;6.07;;
12088;SDS011;6107;49.078;8.578;2023-08-20T07:44:10;11.15;;;5.90;;
12088;SDS011;6107;49.078;8.578;2023-08-20T07:46:36;12.18;;;5.93;;
12088;SDS011;6107;49.078;8.578;2023-08-20T07:49:01;12.27;;;5.93;;
12088;SDS011;6107;49.078;8.578;2023-08-20T07:51:27;12.25;;;5.88;;
12088;SDS011;6107;49.078;8.578;2023-08-20T07:53:53;10.23;;;6.05;;
12088;SDS011;6107;49.078;8.578;2023-08-20T07:56:18;12.10;;;5.93;;
12088;SDS011;6107;49.078;8.578;2023-08-20T07:58:44;10.35;;;5.63;;
12088;SDS011;6107;49.078;8.578;2023-08-20T08:01:09;9.93;;;6.60;;
12088;SDS011;6107;49.078;8.578;2023-08-20T08:03:35;12.68;;;5.93;;
12088;SDS011;6107;49.078;8.578;2023-08-20T08:06:00;7.93;;;5.60;;
12088;SDS011;6107;49.078;8.578;2023-08-20T08:08:26;13.65;;;6.35;;
12088;SDS011;6107;49.078;8.578;2023-08-20T08:10:51;8.68;;;5.90;;
12088;SDS011;6107;49.078;8.578;2023-08-20T08:13:20;13.70;;;6.15;;
12088;SDS011;6107;49.078;8.578;2023-08-20T08:15:47;11.18;;;5.63;;
12088;SDS011;6107;49.078;8.578;2023-08-20T08:18:13;10.40;;;5.60;;
12088;SDS011;6107;49.078;8.578;2023-08-20T08:20:38;13.18;;;6.10;;
12088;SDS011;6107;49.078;8.578;2023-08-20T08:23:04;12.07;;;5.63;;
12088;SDS011;6107;49.078;8.578;2023-08-20T08:25:29;7.72;;;5.40;;
12088;SDS011;6107;49.078;8.578;2023-08-20T08:27:55;8.55;;;5.57;;
12088;SDS011;6107;49.078;8.578;2023-08-20T08:30:20;11.35;;;6.15;;
12088;SDS011;6107;49.078;8.578;2023-08-20T08:32:46;15.35;;;5.78;;
12088;SDS011;6107;49.078;8.578;2023-08-20T08:35:12;9.98;;;6.25;;
12088;SDS011;6107;49.078;8.578;2023-08-20T08:37:37;8.30;;;5.90;;
12088;SDS011;6107;49.078;8.578;2023-08-20T08:40:03;11.80;;;6.05;;
12088;SDS011;6107;49.078;8.578;2023-08-20T08:42:32;10.60;;;5.47;;
12088;SDS011;6107;49.078;8.578;2023-08-20T08:44:58;7.55;;;5.28;;
12088;SDS011;6107;49.078;8.578;2023-08-20T08:47:25;10.32;;;5.93;;
12088;SDS011;6107;49.078;8.578;2023-08-20T08:49:51;9.27;;;5.50;;
12088;SDS011;6107;49.078;8.578;2023-08-20T08:52:19;9.63;;;5.68;;
12088;SDS011;6107;49.078;8.578;2023-08-20T08:54:47;12.32;;;5.85;;
12088;SDS011;6107;49.078;8.578;2023-08-20T08:57:14;8.98;;;5.80;;
12088;SDS011;6107;49.078;8.578;2023-08-20T08:59:40;16.45;;;6.70;;
12088;SDS011;6107;49.078;8.578;2023-08-20T09:02:07;11.02;;;5.70;;
12088;SDS011;6107;49.078;8.578;2023-08-20T09:04:34;11.88;;;6.20;;
12088;SDS011;6107;49.078;8.578;2023-08-20T09:07:03;7.47;;;5.25;;
12088;SDS011;6107;49.078;8.578;2023-08-20T09:09:29;16.83;;;6.30;;
12088;SDS011;6107;49.078;8.578;2023-08-20T09:11:55;11.90;;;5.38;;
12088;SDS011;6107;49.078;8.578;2023-08-20T09:14:21;10.75;;;5.47;;
12088;SDS011;6107;49.078;8.578;2023-08-20T09:17:00;12.30;;;6.50;;
12088;SDS011;6107;49.078;8.578;2023-08-20T09:19:30;12.18;;;6.90;;
12088;SDS011;6107;49.078;8.578;2023-08-20T09:22:00;10.40;;;5.95;;
12088;SDS011;6107;49.078;8.578;2023-08-20T09:24:26;8.32;;;5.60;;
12088;SDS011;6107;49.078;8.578;2023-08-20T09:27:03;14.68;;;6.13;;
12088;SDS011;6107;49.078;8.578;2023-08-20T09:29:31;10.07;;;5.63;;
12088;SDS011;6107;49.078;8.578;2023-08-20T09:32:01;7.55;;;5.45;;
12088;SDS011;6107;49.078;8.578;2023-08-20T09:34:37;7.88;;;5.35;;
12088;SDS011;6107;49.078;8.578;2023-08-20T09:37:05;9.30;;;5.80;;
12088;SDS011;6107;49.078;8.578;2023-08-20T09:39:37;9.07;;;5.68;;
12088;SDS011;6107;49.078;8.578;2023-08-20T09:42:04;10.68;;;5.43;;
12088;SDS011;6107;49.078;8.578;2023-08-20T09:44:34;9.60;;;5.93;;
12088;SDS011;6107;49.078;8.578;2023-08-20T09:47:01;8.63;;;5.63;;
12088;SDS011;6107;49.078;8.578;2023-08-20T09:49:30;9.30;;;5.00;;
12088;SDS011;6107;49.078;8.578;2023-08-20T09:51:58;8.55;;;5.32;;
12088;SDS011;6107;49.078;8.578;2023-08-20T09:54:32;10.70;;;6.43;;
12088;SDS011;6107;49.078;8.578;2023-08-20T09:57:05;7.07;;;5.13;;
12088;SDS011;6107;49.078;8.578;2023-08-20T09:59:36;10.82;;;4.80;;
12088;SDS011;6107;49.078;8.578;2023-08-20T10:02:03;12.15;;;5.40;;
12088;SDS011;6107;49.078;8.578;2023-08-20T10:04:29;7.50;;;4.38;;
12088;SDS011;6107;49.078;8.578;2023-08-20T10:06:55;7.88;;;5.10;;
12088;SDS011;6107;49.078;8.578;2023-08-20T10:09:23;10.38;;;5.00;;
12088;SDS011;6107;49.078;8.578;2023-08-20T10:11:50;8.25;;;5.10;;
12088;SDS011;6107;49.078;8.578;2023-08-20T10:14:16;9.43;;;5.13;;
12088;SDS011;6107;49.078;8.578;2023-08-20T10:16:41;7.55;;;4.80;;
12088;SDS011;6107;49.078;8.578;2023-08-20T10:19:07;11.15;;;5.45;;
12088;SDS011;6107;49.078;8.578;2023-08-20T10:21:32;6.68;;;4.63;;
12088;SDS011;6107;49.078;8.578;2023-08-20T10:24:02;9.38;;;4.93;;
12088;SDS011;6107;49.078;8.578;2023-08-20T10:26:29;8.57;;;4.40;;
12088;SDS011;6107;49.078;8.578;2023-08-20T10:32:13;10.50;;;4.80;;
12088;SDS011;6107;49.078;8.578;2023-08-20T10:34:39;7.00;;;4.22;;
12088;SDS011;6107;49.078;8.578;2023-08-20T10:37:14;10.93;;;4.57;;
12088;SDS011;6107;49.078;8.578;2023-08-20T10:39:40;6.13;;;3.90;;
12088;SDS011;6107;49.078;8.578;2023-08-20T10:42:22;9.90;;;4.65;;
12088;SDS011;6107;49.078;8.578;2023-08-20T10:44:58;6.35;;;4.40;;
12088;SDS011;6107;49.078;8.578;2023-08-20T10:47:23;9.75;;;4.07;;
12088;SDS011;6107;49.078;8.578;2023-08-20T10:49:53;8.23;;;5.00;;
12088;SDS011;6107;49.078;8.578;2023-08-20T10:52:19;10.52;;;4.60;;
12088;SDS011;6107;49.078;8.578;2023-08-20T10:54:49;7.40;;;4.80;;
12088;SDS011;6107;49.078;8.578;2023-08-20T10:57:16;7.60;;;4.07;;
12088;SDS011;6107;49.078;8.578;2023-08-20T10:59:41;13.27;;;4.57;;
12088;SDS011;6107;49.078;8.578;2023-08-20T11:02:08;11.15;;;4.72;;
12088;SDS011;6107;49.078;8.578;2023-08-20T11:04:40;6.20;;;4.65;;
12088;SDS011;6107;49.078;8.578;2023-08-20T11:07:06;5.07;;;4.18;;
12088;SDS011;6107;49.078;8.578;2023-08-20T11:09:33;7.75;;;4.32;;
12088;SDS011;6107;49.078;8.578;2023-08-20T11:11:58;7.00;;;4.97;;
12088;SDS011;6107;49.078;8.578;2023-08-20T11:14:24;8.57;;;4.82;;
12088;SDS011;6107;49.078;8.578;2023-08-20T11:16:50;7.80;;;5.13;;
12088;SDS011;6107;49.078;8.578;2023-08-20T11:19:20;5.47;;;3.80;;
12088;SDS011;6107;49.078;8.578;2023-08-20T11:21:47;10.52;;;4.70;;
12088;SDS011;6107;49.078;8.578;2023-08-20T11:24:13;11.13;;;4.40;;
12088;SDS011;6107;49.078;8.578;2023-08-20T11:26:39;12.73;;;3.83;;
12088;SDS011;6107;49.078;8.578;2023-08-20T11:29:06;6.38;;;4.40;;
12088;SDS011;6107;49.078;8.578;2023-08-20T11:31:32;8.05;;;4.35;;
12088;SDS011;6107;49.078;8.578;2023-08-20T11:33:58;6.90;;;4.32;;
12088;SDS011;6107;49.078;8.578;2023-08-20T11:36:23;10.20;;;4.65;;
12088;SDS011;6107;49.078;8.578;2023-08-20T11:38:52;9.88;;;4.13;;
12088;SDS011;6107;49.078;8.578;2023-08-20T11:41:19;6.40;;;3.75;;
12088;SDS011;6107;49.078;8.578;2023-08-20T11:43:46;7.57;;;4.05;;
12088;SDS011;6107;49.078;8.578;2023-08-20T11:46:13;10.48;;;3.97;;
12088;SDS011;6107;49.078;8.578;2023-08-20T11:48:57;6.88;;;4.72;;
12088;SDS011;6107;49.078;8.578;2023-08-20T11:51:34;11.98;;;4.40;;
12088;SDS011;6107;49.078;8.578;2023-08-20T11:54:02;8.07;;;4.25;;
12088;SDS011;6107;49.078;8.578;2023-08-20T11:56:29;6.53;;;4.35;;
12088;SDS011;6107;49.078;8.578;2023-08-20T11:58:58;10.57;;;3.95;;
12088;SDS011;6107;49.078;8.578;2023-08-20T12:01:25;8.80;;;4.43;;
12088;SDS011;6107;49.078;8.578;2023-08-20T12:03:51;7.80;;;4.20;;
12088;SDS011;6107;49.078;8.578;2023-08-20T12:06:17;5.57;;;4.18;;
12088;SDS011;6107;49.078;8.578;2023-08-20T12:08:49;12.38;;;4.30;;
12088;SDS011;6107;49.078;8.578;2023-08-20T12:11:15;5.78;;;3.90;;
12088;SDS011;6107;49.078;8.578;2023-08-20T12:13:40;8.68;;;3.65;;
12088;SDS011;6107;49.078;8.578;2023-08-20T12:16:06;9.70;;;4.20;;
12088;SDS011;6107;49.078;8.578;2023-08-20T12:18:32;5.75;;;3.72;;
12088;SDS011;6107;49.078;8.578;2023-08-20T12:20:57;6.65;;;3.90;;
12088;SDS011;6107;49.078;8.578;2023-08-20T12:23:23;8.80;;;3.80;;
12088;SDS011;6107;49.078;8.578;2023-08-20T12:25:51;5.70;;;3.50;;
12088;SDS011;6107;49.078;8.578;2023-08-20T12:28:17;7.10;;;3.50;;
12088;SDS011;6107;49.078;8.578;2023-08-20T12:30:43;6.13;;;3.55;;
12088;SDS011;6107;49.078;8.578;2023-08-20T12:33:08;5.85;;;3.85;;
12088;SDS011;6107;49.078;8.578;2023-08-20T12:35:34;6.15;;;3.70;;
12088;SDS011;6107;49.078;8.578;2023-08-20T12:38:00;6.75;;;3.95;;
12088;SDS011;6107;49.078;8.578;2023-08-20T12:40:26;5.05;;;3.15;;
12088;SDS011;6107;49.078;8.578;2023-08-20T12:42:51;8.95;;;4.47;;
12088;SDS011;6107;49.078;8.578;2023-08-20T12:45:17;5.28;;;3.75;;
12088;SDS011;6107;49.078;8.578;2023-08-20T12:47:42;7.15;;;4.03;;
12088;SDS011;6107;49.078;8.578;2023-08-20T12:50:08;10.70;;;4.57;;
12088;SDS011;6107;49.078;8.578;2023-08-20T12:52:33;8.02;;;3.88;;
12088;SDS011;6107;49.078;8.578;2023-08-20T12:54:59;7.32;;;4.15;;
12088;SDS011;6107;49.078;8.578;2023-08-20T12:57:25;9.57;;;3.67;;
12088;SDS011;6107;49.078;8.578;2023-08-20T12:59:50;5.20;;;3.65;;
12088;SDS011;6107;49.078;8.578;2023-08-20T13:02:17;7.68;;;4.13;;
12088;SDS011;6107;49.078;8.578;2023-08-20T13:04:44;6.30;;;3.65;;
12088;SDS011;6107;49.078;8.578;2023-08-20T13:07:09;14.63;;;4.22;;
12088;SDS011;6107;49.078;8.578;2023-08-20T13:09:38;5.25;;;3.50;;
12088;SDS011;6107;49.078;8.578;2023-08-20T13:12:04;13.57;;;3.50;;
12088;SDS011;6107;49.078;8.578;2023-08-20T13:14:34;13.18;;;3.80;;
12088;SDS011;6107;49.078;8.578;2023-08-20T13:17:00;7.00;;;3.40;;
12088;SDS011;6107;49.078;8.578;2023-08-20T13:19:25;5.80;;;3.35;;
12088;SDS011;6107;49.078;8.578;2023-08-20T13:21:51;5.00;;;3.38;;
12088;SDS011;6107;49.078;8.578;2023-08-20T13:24:16;5.88;;;3.13;;
12088;SDS011;6107;49.078;8.578;2023-08-20T13:26:42;7.70;;;3.78;;
12088;SDS011;6107;49.078;8.578;2023-08-20T13:29:07;22.88;;;3.80;;
12088;SDS011;6107;49.078;8.578;2023-08-20T13:31:33;6.95;;;4.30;;
12088;SDS011;6107;49.078;8.578;2023-08-20T13:34:00;7.18;;;3.60;;
12088;SDS011;6107;49.078;8.578;2023-08-20T13:36:26;7.63;;;3.47;;
12088;SDS011;6107;49.078;8.578;2023-08-20T13:38:51;4.47;;;3.53;;
12088;SDS011;6107;49.078;8.578;2023-08-20T13:41:17;8.70;;;4.07;;
12088;SDS011;6107;49.078;8.578;2023-08-20T13:43:43;9.10;;;3.28;;
12088;SDS011;6107;49.078;8.578;2023-08-20T13:46:08;10.50;;;3.83;;
12088;SDS011;6107;49.078;8.578;2023-08-20T13:48:34;7.38;;;3.05;;
12088;SDS011;6107;49.078;8.578;2023-08-20T13:50:59;4.68;;;2.75;;
12088;SDS011;6107;49.078;8.578;2023-08-20T13:53:25;6.22;;;3.40;;
12088;SDS011;6107;49.078;8.578;2023-08-20T13:55:51;6.57;;;3.28;;
12088;SDS011;6107;49.078;8.578;2023-08-20T13:58:16;4.00;;;2.90;;
12088;SDS011;6107;49.078;8.578;2023-08-20T14:00:42;4.63;;;3.13;;
12088;SDS011;6107;49.078;8.578;2023-08-20T14:03:07;6.45;;;3.40;;
12088;SDS011;6107;49.078;8.578;2023-08-20T14:05:33;11.00;;;3.15;;
12088;SDS011;6107;49.078;8.578;2023-08-20T14:07:58;8.10;;;2.95;;
12088;SDS011;6107;49.078;8.578;2023-08-20T14:10:24;4.40;;;3.20;;
12088;SDS011;6107;49.078;8.578;2023-08-20T14:12:49;7.75;;;3.10;;
12088;SDS011;6107;49.078;8.578;2023-08-20T14:15:15;4.22;;;2.95;;
12088;SDS011;6107;49.078;8.578;2023-08-20T14:17:40;4.38;;;3.15;;
12088;SDS011;6107;49.078;8.578;2023-08-20T14:20:06;4.88;;;2.95;;
12088;SDS011;6107;49.078;8.578;2023-08-20T14:22:33;7.22;;;2.95;;
12088;SDS011;6107;49.078;8.578;2023-08-20T14:24:58;4.13;;;2.90;;
12088;SDS011;6107;49.078;8.578;2023-08-20T14:27:24;4.45;;;2.90;;
12088;SDS011;6107;49.078;8.578;2023-08-20T14:29:49;5.70;;;2.95;;
12088;SDS011;6107;49.078;8.578;2023-08-20T14:32:15;6.57;;;3.22;;
12088;SDS011;6107;49.078;8.578;2023-08-20T14:34:41;4.63;;;2.72;;
12088;SDS011;6107;49.078;8.578;2023-08-20T14:37:06;4.85;;;3.25;;
12088;SDS011;6107;49.078;8.578;2023-08-20T14:39:32;7.68;;;3.53;;
12088;SDS011;6107;49.078;8.578;2023-08-20T14:41:58;6.93;;;3.30;;
12088;SDS011;6107;49.078;8.578;2023-08-20T14:44:24;6.55;;;3.20;;
12088;SDS011;6107;49.078;8.578;2023-08-20T14:46:49;8.48;;;3.63;;
12088;SDS011;6107;49.078;8.578;2023-08-20T14:49:15;14.55;;;3.63;;
12088;SDS011;6107;49.078;8.578;2023-08-20T14:51:42;5.70;;;3.38;;
12088;SDS011;6107;49.078;8.578;2023-08-20T14:54:08;9.30;;;3.45;;
12088;SDS011;6107;49.078;8.578;2023-08-20T14:56:33;6.97;;;3.00;;